Time;durP1;ratioP1;P1;durP2;ratioP2;P2;SDS_P1;SDS_P2;PMS_P1;PMS_P2;Temp;Humidity;BMP_temperature;BMP_pressure;BME280_temperature;BME280_humidity;BME280_pressure;Samples;Min_cycle;Max_cycle;Signal;HPM_P1;HPM_P2
2022/01/12 00:01:05;;;;;;;8.65;5.70;;;;;;;1.61;58.86;95053.53;5087125;28;20277;-76
2022/01/12 00:03:33;;;;;;;6.90;6.07;;;;;;;1.73;58.04;95043.97;5069598;28;20200;-76
2022/01/12 00:05:59;;;;;;;10.00;6.53;;;;;;;1.66;58.76;95043.66;5078496;28;20178;-76
2022/01/12 00:08:25;;;;;;;8.50;6.67;;;;;;;0.98;60.47;95049.25;5069695;28;20247;-76
2022/01/12 00:10:51;;;;;;;7.65;5.15;;;;;;;1.38;59.25;95046.91;5077307;28;20603;-75
2022/01/12 00:13:16;;;;;;;8.00;5.73;;;;;;;1.48;58.77;95052.94;5054883;28;20206;-76
2022/01/12 00:15:42;;;;;;;9.00;6.10;;;;;;;1.81;58.29;95056.22;5078202;28;20205;-75
2022/01/12 00:18:08;;;;;;;7.10;5.37;;;;;;;1.50;58.96;95058.78;5080729;28;20202;-75
2022/01/12 00:20:33;;;;;;;6.63;5.40;;;;;;;1.96;57.86;95054.91;5068670;28;20528;-75
2022/01/12 00:22:59;;;;;;;8.83;6.03;;;;;;;1.68;58.31;95059.81;5069163;28;20253;-75
2022/01/12 00:25:29;;;;;;;7.03;6.00;;;;;;;1.80;57.99;95070.84;5073533;28;20268;-75
2022/01/12 00:33:23;;;;;;;7.32;6.07;;;;;;;1.55;58.53;95072.91;5073722;28;20248;-75
2022/01/12 00:35:54;;;;;;;7.00;5.27;;;;;;;1.73;58.15;95078.31;5069172;28;20174;-75
2022/01/12 00:38:22;;;;;;;8.07;5.88;;;;;;;1.45;58.36;95079.00;5073903;28;20182;-75
2022/01/12 00:40:53;;;;;;;7.30;4.85;;;;;;;1.58;58.59;95079.59;5069483;28;20205;-75
2022/01/12 00:43:21;;;;;;;9.10;4.97;;;;;;;1.45;58.93;95089.31;5069207;28;20333;-76
2022/01/12 00:45:47;;;;;;;7.75;6.63;;;;;;;1.46;59.69;95080.59;5069565;28;20193;-75
2022/01/12 00:48:17;;;;;;;4.75;3.88;;;;;;;1.57;58.35;95075.38;5069971;28;20721;-75
2022/01/12 00:50:44;;;;;;;8.13;5.40;;;;;;;1.48;58.17;95078.72;5070448;28;20247;-76
2022/01/12 00:53:10;;;;;;;6.20;5.55;;;;;;;1.36;59.58;95076.22;5070183;28;20216;-74
2022/01/12 00:55:36;;;;;;;13.67;6.57;;;;;;;1.47;58.73;95064.22;5069980;28;20186;-76
2022/01/12 00:58:03;;;;;;;11.43;6.60;;;;;;;1.62;57.98;95065.50;5069175;28;20276;-76
2022/01/12 01:00:29;;;;;;;7.30;6.53;;;;;;;1.62;58.05;95068.09;5069477;28;20221;-75
2022/01/12 01:02:56;;;;;;;8.20;5.43;;;;;;;1.42;58.44;95069.72;5069364;28;20194;-75
2022/01/12 01:05:23;;;;;;;6.97;5.70;;;;;;;1.35;59.04;95073.78;5086907;28;20241;-75
2022/01/12 01:07:50;;;;;;;7.28;5.65;;;;;;;1.55;58.13;95069.53;5057034;28;20206;-75
2022/01/12 01:10:59;;;;;;;9.55;5.47;;;;;;;1.54;57.57;95073.06;5067912;28;20255;-75
2022/01/12 01:13:09;;;;;;;7.30;6.07;;;;;;;1.81;57.61;95074.28;5076716;28;20347;-76
2022/01/12 01:26:19;;;;;;;10.48;4.85;;;;;;;1.29;57.64;95074.28;5073544;28;20244;-76
2022/01/12 01:28:44;;;;;;;7.20;6.27;;;;;;;1.66;57.26;95077.19;5071649;28;20177;-76
2022/01/12 01:31:09;;;;;;;10.00;4.80;;;;;;;1.88;57.03;95070.25;5067583;28;20185;-76
2022/01/12 01:33:35;;;;;;;8.30;5.07;;;;;;;1.51;57.72;95075.91;5065722;28;20189;-75
2022/01/12 01:36:00;;;;;;;8.33;4.90;;;;;;;1.87;56.83;95064.25;5079593;28;20651;-75
2022/01/12 01:38:26;;;;;;;5.83;5.13;;;;;;;2.09;56.78;95072.75;5068302;28;20177;-75
2022/01/12 01:40:52;;;;;;;7.43;5.10;;;;;;;2.11;56.57;95070.84;5060123;28;20216;-74
2022/01/12 01:54:14;;;;;;;6.93;4.45;;;;;;;1.81;56.67;95076.84;5077298;28;20185;-76
2022/01/12 01:56:40;;;;;;;6.27;4.57;;;;;;;1.78;56.44;95080.50;5048176;28;20182;-76
2022/01/12 01:59:06;;;;;;;7.30;5.33;;;;;;;1.81;56.43;95084.59;5048252;28;20425;-76
2022/01/12 02:01:31;;;;;;;6.70;5.63;;;;;;;2.00;55.88;95079.50;5062176;28;20472;-76
2022/01/12 02:04:01;;;;;;;4.27;3.87;;;;;;;1.36;56.68;95090.88;5056662;28;20543;-75
2022/01/12 02:06:28;;;;;;;5.68;4.72;;;;;;;1.16;57.88;95095.09;5086991;28;20176;-76
2022/01/12 02:08:54;;;;;;;9.27;5.60;;;;;;;1.70;56.43;95090.66;5079845;28;20261;-75
2022/01/12 02:11:29;;;;;;;7.67;5.70;;;;;;;1.45;57.11;95092.69;5065332;28;20171;-76
2022/01/12 02:13:55;;;;;;;8.93;6.20;;;;;;;1.49;56.95;95091.50;5079200;28;20189;-76
2022/01/12 02:16:32;;;;;;;5.60;4.70;;;;;;;1.64;56.36;95093.75;5060018;28;20185;-76
2022/01/12 02:19:17;;;;;;;7.95;5.55;;;;;;;1.33;57.66;95097.09;5073586;28;20169;-75
2022/01/12 02:40:55;;;;;;;7.32;5.38;;;;;;;1.43;56.93;95120.38;5089386;28;20204;-76
2022/01/12 02:53:51;;;;;;;5.90;3.90;;;;;;;1.16;56.06;95141.50;5074702;28;20166;-76
2022/01/12 02:56:24;;;;;;;7.47;4.83;;;;;;;0.90;57.56;95146.97;5089171;28;20245;-76
2022/01/12 02:58:51;;;;;;;5.95;4.53;;;;;;;1.31;56.91;95139.41;5069183;28;20985;-75
2022/01/12 03:04:08;;;;;;;5.68;4.93;;;;;;;1.24;57.12;95144.25;5077228;28;20177;-76
2022/01/12 03:06:37;;;;;;;6.75;4.55;;;;;;;1.24;56.94;95154.56;5089177;28;20215;-76
2022/01/12 03:09:05;;;;;;;6.82;5.05;;;;;;;1.20;56.77;95148.03;5070758;28;20212;-76
2022/01/12 03:11:32;;;;;;;5.60;5.05;;;;;;;1.13;56.70;95157.19;5087038;28;20190;-76
2022/01/12 03:13:58;;;;;;;4.97;3.50;;;;;;;1.35;55.98;95157.09;5056759;28;20277;-76
2022/01/12 03:16:25;;;;;;;5.80;4.00;;;;;;;1.63;55.39;95165.16;5070291;28;20186;-75
2022/01/12 03:18:56;;;;;;;5.25;4.68;;;;;;;1.42;55.50;95166.91;5063573;28;20443;-75
2022/01/12 03:21:25;;;;;;;6.75;5.22;;;;;;;1.29;55.49;95162.75;5071278;28;20255;-75
2022/01/12 03:23:52;;;;;;;6.22;4.95;;;;;;;1.09;56.53;95166.13;5071942;28;20560;-75
2022/01/12 03:26:18;;;;;;;5.95;4.75;;;;;;;0.94;56.85;95174.13;5058002;28;20183;-75
2022/01/12 03:28:52;;;;;;;6.32;4.95;;;;;;;1.29;56.41;95173.06;5053368;28;20198;-75
2022/01/12 03:31:21;;;;;;;5.90;5.45;;;;;;;0.94;57.26;95168.97;5068398;28;20173;-75
2022/01/12 04:09:15;;;;;;;7.60;4.63;;;;;;;1.80;53.64;95217.09;5089299;28;20177;-75
2022/01/12 04:11:41;;;;;;;9.33;6.07;;;;;;;1.91;54.25;95227.38;5068332;28;20186;-76
2022/01/12 04:14:07;;;;;;;8.07;5.17;;;;;;;1.64;54.59;95228.69;5050631;28;20273;-76
2022/01/12 04:16:34;;;;;;;6.88;5.38;;;;;;;1.45;55.16;95226.78;5064763;28;20204;-76
2022/01/12 04:18:59;;;;;;;6.68;5.53;;;;;;;1.40;54.44;95228.09;5050698;28;20282;-75
2022/01/12 04:21:29;;;;;;;7.30;4.80;;;;;;;1.31;55.64;95237.38;5064599;28;20700;-76
2022/01/12 04:23:59;;;;;;;8.43;5.85;;;;;;;1.01;55.73;95240.66;5061426;28;20190;-75
2022/01/12 04:26:26;;;;;;;5.65;4.10;;;;;;;1.32;54.58;95244.97;5071107;28;20240;-76
2022/01/12 04:28:52;;;;;;;7.07;4.50;;;;;;;1.46;54.31;95240.47;5089920;28;20598;-75
2022/01/12 04:31:18;;;;;;;10.17;5.23;;;;;;;1.52;54.85;95245.16;5056436;28;20194;-75
2022/01/12 04:33:45;;;;;;;4.83;3.47;;;;;;;1.28;55.01;95248.75;5075550;28;20174;-75
2022/01/12 04:36:12;;;;;;;13.07;4.65;;;;;;;1.12;55.13;95248.31;5070856;28;20197;-76
2022/01/12 04:38:39;;;;;;;4.30;2.88;;;;;;;1.13;55.16;95249.97;5087004;28;20211;-76
2022/01/12 04:41:07;;;;;;;4.90;4.05;;;;;;;1.38;54.97;95255.75;5070885;28;20193;-75
2022/01/12 04:43:35;;;;;;;5.47;4.93;;;;;;;0.69;55.77;95249.94;5090504;28;20192;-75
2022/01/12 04:48:36;;;;;;;6.20;4.97;;;;;;;1.41;54.38;95258.91;5089676;28;20335;-75
2022/01/12 04:51:01;;;;;;;7.30;4.30;;;;;;;1.47;54.27;95261.00;5070584;28;20652;-76
2022/01/12 04:53:27;;;;;;;7.80;5.10;;;;;;;1.92;53.22;95265.94;5052348;28;20198;-76
2022/01/12 04:55:53;;;;;;;7.80;6.17;;;;;;;1.36;54.36;95261.03;5067696;28;20176;-75
2022/01/12 04:58:20;;;;;;;6.38;5.47;;;;;;;1.16;54.65;95263.44;5049413;28;20455;-76
2022/01/12 05:00:48;;;;;;;7.93;4.57;;;;;;;1.59;53.94;95259.19;5050097;28;20387;-75
2022/01/12 05:13:56;;;;;;;3.58;2.88;;;;;;;1.11;54.35;95285.34;5094855;28;20192;-76
2022/01/12 05:16:22;;;;;;;5.30;4.10;;;;;;;1.31;53.14;95291.50;5090142;28;20276;-75
2022/01/12 05:18:50;;;;;;;6.43;4.40;;;;;;;1.64;52.96;95295.75;5078452;28;20177;-75
2022/01/12 05:21:18;;;;;;;6.05;4.43;;;;;;;1.56;52.91;95298.13;5069511;28;20217;-75
2022/01/12 05:23:44;;;;;;;7.65;4.05;;;;;;;1.36;53.51;95307.44;5069770;28;20185;-76
2022/01/12 05:26:09;;;;;;;5.47;4.40;;;;;;;1.49;53.72;95305.53;5056420;28;20198;-76
2022/01/12 05:28:38;;;;;;;6.90;5.17;;;;;;;1.49;53.78;95315.03;5059559;28;20181;-76
2022/01/12 05:31:05;;;;;;;5.35;4.85;;;;;;;1.59;53.43;95315.94;5055939;28;20182;-76
2022/01/12 05:33:31;;;;;;;6.43;5.45;;;;;;;1.27;53.54;95321.88;5063370;28;20346;-76
2022/01/12 05:35:58;;;;;;;7.93;5.07;;;;;;;1.44;53.58;95324.88;5062934;28;20200;-76
2022/01/12 05:38:25;;;;;;;5.60;5.05;;;;;;;1.77;53.38;95323.16;5087620;28;20245;-77
2022/01/12 05:40:58;;;;;;;6.65;5.07;;;;;;;2.22;51.73;95331.50;5069984;28;20232;-78
2022/01/12 05:43:49;;;;;;;6.68;5.65;;;;;;;1.78;52.98;95327.34;5068258;28;20201;-78
2022/01/12 05:46:25;;;;;;;9.57;7.40;;;;;;;1.42;52.81;95335.31;5085430;28;20279;-77
2022/01/12 05:51:41;;;;;;;5.38;4.80;;;;;;;1.40;52.87;95328.66;5082685;28;20192;-78
2022/01/12 05:54:20;;;;;;;4.78;4.35;;;;;;;1.51;52.56;95334.59;5067682;28;20182;-78
2022/01/12 05:56:56;;;;;;;7.35;5.60;;;;;;;1.60;52.85;95340.78;5085765;28;20182;-78
2022/01/12 05:59:22;;;;;;;2.08;1.98;;;;;;;1.19;52.43;95342.28;5085006;28;20231;-78
2022/01/12 06:01:47;;;;;;;9.07;6.53;;;;;;;1.46;52.59;95351.38;5085732;28;20225;-79
2022/01/12 06:04:13;;;;;;;10.03;5.90;;;;;;;1.73;51.61;95356.13;5085810;28;20182;-77
2022/01/12 06:06:44;;;;;;;9.20;4.80;;;;;;;1.53;52.69;95355.09;5067695;28;20181;-78
2022/01/12 06:09:09;;;;;;;6.47;5.78;;;;;;;1.14;53.14;95365.03;5084691;28;20182;-77
2022/01/12 06:11:40;;;;;;;9.57;6.53;;;;;;;1.26;53.05;95361.47;5086386;28;20243;-78
2022/01/12 06:14:07;;;;;;;6.47;5.10;;;;;;;1.20;52.80;95377.44;5068330;28;20277;-77
2022/01/12 06:16:33;;;;;;;6.60;5.35;;;;;;;1.48;51.82;95372.69;5065265;28;20205;-77
2022/01/12 06:18:59;;;;;;;8.48;6.40;;;;;;;1.18;53.01;95381.88;5084818;28;20177;-78
2022/01/12 06:21:24;;;;;;;7.67;6.03;;;;;;;1.14;53.34;95385.66;5052693;28;20248;-76
2022/01/12 06:23:50;;;;;;;5.97;5.10;;;;;;;1.16;52.97;95384.56;5084461;28;20196;-75
2022/01/12 06:26:16;;;;;;;4.50;3.87;;;;;;;1.27;52.73;95386.34;5065927;28;20182;-76
2022/01/12 06:28:53;;;;;;;7.77;6.60;;;;;;;1.20;52.63;95385.16;5066395;28;20173;-77
2022/01/12 06:31:23;;;;;;;6.93;5.13;;;;;;;1.87;51.72;95388.56;5084406;28;20166;-77
2022/01/12 06:33:49;;;;;;;12.35;5.30;;;;;;;1.33;52.80;95400.50;5074798;28;20182;-77
2022/01/12 06:36:17;;;;;;;8.60;6.27;;;;;;;1.57;52.58;95400.34;5061282;28;20174;-75
2022/01/12 06:38:44;;;;;;;9.57;7.05;;;;;;;1.44;52.81;95402.25;5073927;28;20174;-76
2022/01/12 06:41:11;;;;;;;6.70;4.93;;;;;;;1.80;51.76;95408.84;5065095;28;20227;-77
2022/01/12 06:43:37;;;;;;;3.35;3.05;;;;;;;1.12;53.39;95410.69;5078958;28;20186;-78
2022/01/12 06:46:03;;;;;;;5.97;5.40;;;;;;;1.01;53.66;95415.88;5079212;28;20679;-76
2022/01/12 06:48:33;;;;;;;6.63;5.25;;;;;;;1.34;52.31;95413.25;5068095;28;20178;-77
2022/01/12 06:50:59;;;;;;;7.53;4.80;;;;;;;1.34;53.21;95423.56;5085437;28;20174;-77
2022/01/12 06:53:24;;;;;;;6.70;6.00;;;;;;;1.02;53.10;95423.47;5064529;28;20261;-79
2022/01/12 06:55:53;;;;;;;8.27;7.43;;;;;;;1.56;52.34;95419.34;5063277;28;20413;-78
2022/01/12 06:58:21;;;;;;;9.05;5.80;;;;;;;1.06;53.75;95429.19;5067364;28;20181;-78
2022/01/12 07:00:47;;;;;;;7.00;4.32;;;;;;;1.08;54.02;95428.16;5066449;28;20217;-78
2022/01/12 07:03:13;;;;;;;8.70;6.70;;;;;;;0.90;53.42;95427.78;5083609;28;20667;-78
2022/01/12 07:05:38;;;;;;;7.27;6.00;;;;;;;0.81;54.19;95431.06;5065277;28;20598;-79
2022/01/12 07:08:04;;;;;;;7.03;4.70;;;;;;;1.41;52.54;95436.03;5070807;28;20181;-77
2022/01/12 07:10:30;;;;;;;7.57;5.63;;;;;;;1.41;52.85;95438.59;5088070;28;20233;-77
2022/01/12 07:12:58;;;;;;;6.13;5.60;;;;;;;1.46;52.05;95444.19;5065034;28;20182;-78
2022/01/12 07:15:25;;;;;;;8.07;5.15;;;;;;;1.31;52.05;95441.03;5101928;28;20311;-78
2022/01/12 07:17:54;;;;;;;6.00;4.15;;;;;;;0.49;54.08;95441.97;5070509;28;20254;-77
2022/01/12 07:20:20;;;;;;;7.93;4.82;;;;;;;0.92;52.74;95446.53;5087221;28;20702;-78
2022/01/12 07:22:46;;;;;;;8.30;5.63;;;;;;;1.32;52.42;95445.28;5067687;28;20190;-77
2022/01/12 07:25:11;;;;;;;5.67;5.10;;;;;;;1.80;51.79;95457.88;5070037;28;20200;-77
2022/01/12 07:27:41;;;;;;;8.40;5.47;;;;;;;1.42;52.09;95459.09;5088172;28;20186;-78
2022/01/12 07:30:07;;;;;;;8.90;6.28;;;;;;;1.67;51.30;95462.34;5066764;28;20248;-78
2022/01/12 07:32:32;;;;;;;8.93;5.83;;;;;;;2.00;50.45;95461.47;5073630;28;20183;-77
2022/01/12 07:34:57;;;;;;;7.10;5.77;;;;;;;2.48;50.31;95458.47;5069545;28;20401;-77
2022/01/12 07:37:23;;;;;;;6.50;5.10;;;;;;;2.00;50.54;95461.47;5080069;28;20237;-77
2022/01/12 07:39:49;;;;;;;5.73;5.07;;;;;;;1.93;50.16;95465.47;5091336;28;20190;-78
2022/01/12 07:42:15;;;;;;;5.57;4.40;;;;;;;1.80;51.42;95475.13;5071067;28;20202;-78
2022/01/12 07:44:40;;;;;;;10.73;5.97;;;;;;;1.57;51.63;95464.81;5070818;28;20424;-76
2022/01/12 07:47:06;;;;;;;5.33;4.47;;;;;;;1.68;51.65;95472.56;5070663;28;20420;-76
2022/01/12 07:49:34;;;;;;;6.87;4.43;;;;;;;1.70;51.06;95469.84;5070417;28;20174;-77
2022/01/12 07:52:00;;;;;;;6.03;4.00;;;;;;;1.30;51.33;95472.94;5073640;28;20177;-76
2022/01/12 07:54:25;;;;;;;2.65;2.45;;;;;;;1.15;52.27;95472.31;5088431;28;20178;-78
2022/01/12 07:56:51;;;;;;;10.77;6.37;;;;;;;1.09;52.41;95480.53;5070998;28;20744;-76
2022/01/12 07:59:16;;;;;;;6.70;5.50;;;;;;;1.56;51.53;95476.09;5063416;28;20183;-77
2022/01/12 08:01:42;;;;;;;5.30;4.50;;;;;;;1.66;50.97;95487.31;5067047;28;20309;-77
2022/01/12 08:04:08;;;;;;;7.97;5.03;;;;;;;2.09;49.64;95491.72;5069746;28;20618;-77
2022/01/12 08:06:33;;;;;;;6.00;4.73;;;;;;;1.54;50.44;95498.59;5087102;28;20209;-77
2022/01/12 08:08:59;;;;;;;10.47;6.30;;;;;;;1.60;50.71;95495.56;5059407;28;20314;-77
2022/01/12 08:11:25;;;;;;;4.80;3.77;;;;;;;1.49;50.13;95503.28;5070131;28;20186;-78
2022/01/12 08:13:50;;;;;;;8.20;5.20;;;;;;;1.65;49.75;95506.34;5088445;28;20411;-78
2022/01/12 08:16:16;;;;;;;3.77;3.40;;;;;;;1.01;50.81;95524.09;5082760;28;20198;-77
2022/01/12 08:18:41;;;;;;;6.10;5.50;;;;;;;1.28;50.41;95516.06;5069411;28;20186;-77
2022/01/12 08:21:07;;;;;;;2.80;2.60;;;;;;;1.56;49.18;95514.78;5086994;28;20209;-77
2022/01/12 08:23:34;;;;;;;3.43;3.13;;;;;;;1.54;49.40;95516.66;5070526;28;20207;-78
2022/01/12 08:25:59;;;;;;;4.10;2.72;;;;;;;1.36;49.23;95518.84;5069951;28;20193;-77
2022/01/12 08:28:25;;;;;;;4.97;4.50;;;;;;;1.20;50.24;95518.41;5094666;28;20234;-75
2022/01/12 08:30:50;;;;;;;4.33;3.60;;;;;;;1.18;50.01;95521.09;5073756;28;20181;-77
2022/01/12 08:33:17;;;;;;;4.20;3.37;;;;;;;1.45;49.40;95518.16;5072208;28;20349;-76
2022/01/12 08:35:43;;;;;;;3.40;3.20;;;;;;;1.44;48.93;95515.69;5057371;28;20192;-77
2022/01/12 08:38:08;;;;;;;5.07;3.17;;;;;;;1.73;48.92;95516.88;5068994;28;20185;-77
2022/01/12 08:40:37;;;;;;;5.20;4.70;;;;;;;1.36;49.59;95524.03;5063883;28;20447;-77
2022/01/12 08:43:06;;;;;;;6.45;3.83;;;;;;;1.42;49.44;95533.88;5063141;28;20256;-77
2022/01/12 08:45:32;;;;;;;5.15;3.72;;;;;;;1.62;48.67;95524.63;5074811;28;20181;-77
2022/01/12 08:47:57;;;;;;;13.20;4.37;;;;;;;1.71;49.00;95536.00;5064135;28;20747;-77
2022/01/12 08:50:23;;;;;;;4.03;3.10;;;;;;;1.66;48.94;95518.28;5086760;28;20521;-77
2022/01/12 08:52:49;;;;;;;5.30;3.83;;;;;;;1.86;48.58;95533.97;5068444;28;20193;-78
2022/01/12 08:55:18;;;;;;;3.92;3.60;;;;;;;1.51;48.79;95537.50;5060957;28;20174;-77
2022/01/12 08:57:48;;;;;;;6.43;3.80;;;;;;;1.78;49.08;95534.56;5067109;28;20181;-78
2022/01/12 09:00:15;;;;;;;4.70;3.75;;;;;;;1.95;48.92;95528.13;5085836;28;20210;-77
2022/01/12 09:02:49;;;;;;;7.60;4.25;;;;;;;2.15;48.04;95527.38;5066617;28;20198;-78
2022/01/12 09:05:15;;;;;;;5.32;4.65;;;;;;;1.96;48.13;95532.34;5055247;28;20205;-77
2022/01/12 09:07:41;;;;;;;7.67;3.90;;;;;;;2.07;48.08;95527.19;5066020;28;20268;-78
2022/01/12 09:10:07;;;;;;;6.40;4.53;;;;;;;2.05;48.19;95528.22;5065196;28;20177;-77
2022/01/12 09:12:32;;;;;;;4.68;3.53;;;;;;;1.76;48.58;95526.13;5075072;28;20251;-77
2022/01/12 09:15:00;;;;;;;4.32;3.50;;;;;;;1.85;48.30;95524.63;5071755;28;20685;-77
2022/01/12 09:17:26;;;;;;;2.72;2.53;;;;;;;1.61;48.52;95525.56;5062766;28;20563;-80
2022/01/12 09:19:52;;;;;;;6.13;4.20;;;;;;;1.81;48.95;95528.38;5061431;28;20187;-77
2022/01/12 09:22:19;;;;;;;5.03;3.92;;;;;;;1.47;49.18;95526.59;5060300;28;20532;-78
2022/01/12 09:24:46;;;;;;;3.78;3.45;;;;;;;1.64;47.96;95521.94;5065242;28;20190;-79
2022/01/12 09:27:12;;;;;;;5.35;3.65;;;;;;;1.79;48.26;95517.34;5082563;28;20190;-77
2022/01/12 09:29:38;;;;;;;8.25;4.50;;;;;;;1.73;48.60;95522.03;5067789;28;20190;-78
2022/01/12 09:32:04;;;;;;;4.07;3.73;;;;;;;1.92;48.02;95515.47;5068082;28;20181;-76
2022/01/12 09:34:29;;;;;;;4.73;4.30;;;;;;;2.38;47.65;95514.41;5065350;28;20190;-74
2022/01/12 09:36:55;;;;;;;4.13;2.80;;;;;;;2.85;46.29;95519.28;5084431;28;20451;-75
2022/01/12 09:39:20;;;;;;;8.83;3.80;;;;;;;2.45;47.17;95523.31;5082994;28;20186;-75
2022/01/12 09:41:46;;;;;;;6.43;3.70;;;;;;;2.52;47.24;95519.31;5059103;28;20232;-76
2022/01/12 09:44:12;;;;;;;7.80;4.40;;;;;;;2.72;46.94;95519.47;5084963;28;20185;-75
2022/01/12 09:46:38;;;;;;;7.03;3.22;;;;;;;2.51;46.92;95522.81;5050165;28;20201;-74
2022/01/12 09:49:06;;;;;;;3.63;3.07;;;;;;;2.37;47.07;95517.94;5079432;28;20213;-74
2022/01/12 09:51:32;;;;;;;2.60;2.40;;;;;;;2.11;46.91;95507.91;5058748;28;20194;-75
2022/01/12 09:53:58;;;;;;;5.43;2.90;;;;;;;2.40;46.22;95517.69;5067164;28;20428;-74
2022/01/12 09:56:27;;;;;;;3.27;2.77;;;;;;;2.24;47.16;95512.09;5086225;28;20454;-73
2022/01/12 09:58:54;;;;;;;4.68;4.00;;;;;;;2.03;47.98;95522.34;5085511;28;20419;-75
2022/01/12 10:01:35;;;;;;;2.63;2.17;;;;;;;2.06;48.20;95517.78;5081912;28;20608;-75
2022/01/12 10:04:06;;;;;;;4.40;3.97;;;;;;;2.29;46.97;95512.56;5075423;28;20774;-75
2022/01/12 10:06:35;;;;;;;4.45;2.85;;;;;;;2.27;47.37;95511.88;5082503;28;20182;-77
2022/01/12 10:09:01;;;;;;;4.82;3.35;;;;;;;2.32;47.15;95512.31;5062908;28;20635;-80
2022/01/12 10:11:26;;;;;;;4.30;3.30;;;;;;;2.81;46.37;95521.31;5085413;28;20271;-78
2022/01/12 10:13:57;;;;;;;7.17;2.80;;;;;;;2.93;45.06;95522.06;5074250;28;20190;-78
2022/01/12 10:16:26;;;;;;;5.22;3.92;;;;;;;2.74;46.02;95522.75;5085769;28;20186;-77
2022/01/12 10:18:53;;;;;;;6.72;3.88;;;;;;;2.67;46.13;95517.25;5085278;28;20193;-77
2022/01/12 10:21:33;;;;;;;3.92;3.40;;;;;;;2.18;47.02;95522.91;5084620;28;20197;-78
2022/01/12 10:24:11;;;;;;;4.85;3.60;;;;;;;2.86;45.12;95513.97;5077983;28;20182;-76
2022/01/12 10:26:43;;;;;;;4.05;3.33;;;;;;;2.82;45.45;95519.53;5081130;28;20253;-77
2022/01/12 10:29:15;;;;;;;6.13;4.15;;;;;;;3.17;45.32;95519.25;5079476;28;20668;-76
2022/01/12 10:31:49;;;;;;;6.70;4.45;;;;;;;3.17;45.48;95521.81;5061328;28;20216;-77
2022/01/12 10:34:15;;;;;;;3.17;2.97;;;;;;;2.90;45.79;95512.81;5073853;28;20189;-77
2022/01/12 10:36:43;;;;;;;3.03;2.55;;;;;;;3.42;43.42;95512.84;5076555;28;20451;-76
2022/01/12 10:39:11;;;;;;;2.50;2.30;;;;;;;2.51;46.05;95511.69;5079886;28;20182;-77
2022/01/12 10:41:40;;;;;;;4.63;3.87;;;;;;;2.46;46.39;95514.63;5062829;28;20225;-77
2022/01/12 10:44:06;;;;;;;5.85;4.20;;;;;;;2.46;46.18;95511.22;5067079;28;20489;-76
2022/01/12 10:46:31;;;;;;;3.60;2.97;;;;;;;2.94;45.27;95510.78;5080314;28;20212;-76
2022/01/12 10:48:58;;;;;;;4.43;3.93;;;;;;;2.98;45.48;95513.91;5089353;28;20196;-77
2022/01/12 10:51:27;;;;;;;4.22;2.83;;;;;;;3.05;44.45;95513.28;5052398;28;20191;-76
2022/01/12 10:53:58;;;;;;;4.70;3.50;;;;;;;3.05;46.05;95504.72;5089716;28;20189;-76
2022/01/12 10:56:24;;;;;;;3.92;3.55;;;;;;;2.57;45.72;95505.19;5063851;28;20421;-76
2022/01/12 10:58:52;;;;;;;4.33;3.93;;;;;;;2.62;44.97;95509.06;5058166;28;20614;-76
2022/01/12 11:01:21;;;;;;;6.85;3.63;;;;;;;3.06;44.85;95507.19;5064495;28;20237;-76
2022/01/12 11:03:47;;;;;;;9.57;3.67;;;;;;;2.87;44.68;95514.81;5081585;28;20238;-76
2022/01/12 11:06:14;;;;;;;4.93;3.10;;;;;;;3.54;44.22;95515.34;5063680;28;20253;-76
2022/01/12 11:08:41;;;;;;;4.32;3.50;;;;;;;3.48;43.98;95508.91;5062418;28;20419;-76
2022/01/12 11:11:07;;;;;;;4.20;3.13;;;;;;;3.24;44.28;95504.84;5064209;28;20190;-76
2022/01/12 11:13:33;;;;;;;4.15;3.75;;;;;;;2.82;44.86;95499.66;5057047;28;20415;-74
2022/01/12 11:16:00;;;;;;;4.10;3.70;;;;;;;2.96;44.80;95501.16;5052904;28;20221;-76
2022/01/12 11:18:31;;;;;;;5.23;4.10;;;;;;;3.02;44.76;95507.59;5065707;28;20423;-77
2022/01/12 11:21:29;;;;;;;3.53;3.20;;;;;;;3.06;44.54;95507.19;5069258;28;20462;-76
2022/01/12 11:23:59;;;;;;;5.13;3.22;;;;;;;2.95;44.30;95501.25;5040668;28;20182;-75
2022/01/12 11:26:27;;;;;;;3.80;3.40;;;;;;;2.66;45.16;95512.22;5078315;28;20185;-75
2022/01/12 11:28:54;;;;;;;4.07;3.55;;;;;;;3.25;44.27;95500.50;5065628;28;20930;-76
2022/01/12 11:31:28;;;;;;;3.15;2.85;;;;;;;2.84;44.95;95509.88;5065986;28;20189;-75
2022/01/12 11:33:54;;;;;;;4.30;3.83;;;;;;;3.12;44.96;95506.66;5064998;28;20178;-74
2022/01/12 11:36:23;;;;;;;4.10;3.40;;;;;;;3.06;45.12;95511.53;5078015;28;20169;-75
2022/01/12 11:38:58;;;;;;;4.03;3.40;;;;;;;3.06;43.86;95511.53;5067861;28;20212;-75
2022/01/12 11:41:26;;;;;;;14.20;4.33;;;;;;;3.39;43.71;95510.50;5075314;28;20193;-74
2022/01/12 11:44:01;;;;;;;3.20;2.90;;;;;;;3.45;42.99;95519.50;5068082;28;20571;-75
2022/01/12 11:46:28;;;;;;;3.03;2.83;;;;;;;2.87;43.69;95514.81;5056445;28;20470;-74
2022/01/12 11:48:56;;;;;;;4.03;3.67;;;;;;;3.44;43.56;95516.13;5055889;28;20439;-74
2022/01/12 11:51:40;;;;;;;3.67;3.33;;;;;;;3.06;44.08;95516.72;5076030;28;20190;-75
2022/01/12 11:54:10;;;;;;;2.97;2.67;;;;;;;2.63;44.01;95525.38;5067150;28;20590;-75
2022/01/12 11:56:37;;;;;;;3.43;2.70;;;;;;;2.90;43.38;95520.56;5058849;28;20424;-75
2022/01/12 11:59:12;;;;;;;3.00;2.80;;;;;;;2.93;44.69;95527.25;5078724;28;20421;-75
2022/01/12 12:01:50;;;;;;;7.70;3.70;;;;;;;2.81;44.27;95525.63;5078190;28;20253;-75
2022/01/12 12:04:27;;;;;;;3.92;3.55;;;;;;;2.99;44.36;95520.75;5075591;28;20429;-75
2022/01/12 12:07:07;;;;;;;9.55;3.35;;;;;;;3.79;43.09;95525.25;5068741;28;20237;-75
2022/01/12 12:09:53;;;;;;;6.90;3.07;;;;;;;3.40;42.94;95524.28;5058048;28;20211;-75
2022/01/12 12:12:21;;;;;;;3.00;2.80;;;;;;;3.69;43.22;95525.22;5077189;28;20444;-75
2022/01/12 12:14:55;;;;;;;9.60;4.20;;;;;;;2.59;44.59;95529.97;5073320;28;20428;-75
2022/01/12 12:17:23;;;;;;;5.93;3.90;;;;;;;3.17;44.09;95532.16;5056311;28;20524;-75
2022/01/12 12:19:50;;;;;;;3.70;3.13;;;;;;;3.27;42.96;95527.88;5075577;28;20456;-74
2022/01/12 12:22:19;;;;;;;3.67;3.37;;;;;;;2.97;43.44;95531.22;5062982;28;20462;-75
2022/01/12 12:24:51;;;;;;;3.60;2.90;;;;;;;3.07;43.56;95531.28;5069504;28;20442;-75
2022/01/12 12:27:20;;;;;;;7.00;4.23;;;;;;;3.36;43.35;95528.03;5074546;28;20423;-75
2022/01/12 12:29:48;;;;;;;9.60;3.93;;;;;;;3.64;42.63;95526.53;5078566;28;20436;-75
2022/01/12 12:32:14;;;;;;;7.70;3.50;;;;;;;3.31;42.96;95526.66;5083819;28;20427;-74
2022/01/12 12:34:42;;;;;;;4.60;3.23;;;;;;;3.49;42.82;95524.31;5050490;28;20434;-74
2022/01/12 12:37:11;;;;;;;5.27;3.97;;;;;;;2.93;44.23;95519.47;5074523;28;20501;-75
2022/01/12 12:39:43;;;;;;;7.23;3.47;;;;;;;2.45;44.23;95528.50;5059158;28;20458;-75
2022/01/12 12:42:20;;;;;;;5.53;3.80;;;;;;;2.06;45.79;95525.50;5070918;28;20461;-75
2022/01/12 12:44:54;;;;;;;4.63;4.00;;;;;;;2.38;45.28;95529.09;5058472;28;20412;-75
2022/01/12 12:47:20;;;;;;;7.23;3.80;;;;;;;2.08;46.76;95526.22;5062310;28;20554;-75
2022/01/12 12:49:48;;;;;;;23.87;5.37;;;;;;;1.82;46.65;95530.00;5077679;28;20436;-75
2022/01/12 12:52:22;;;;;;;11.10;4.77;;;;;;;2.86;45.27;95520.91;5073446;28;20444;-75
2022/01/12 12:54:48;;;;;;;6.25;4.20;;;;;;;3.11;43.83;95522.31;5073274;28;20428;-76
2022/01/12 12:57:20;;;;;;;5.43;3.20;;;;;;;3.27;43.82;95522.69;5081644;28;20212;-77
2022/01/12 12:59:47;;;;;;;3.50;3.20;;;;;;;2.62;44.07;95524.56;5077045;28;20250;-75
2022/01/12 13:02:12;;;;;;;3.27;2.97;;;;;;;3.25;42.56;95522.00;5055711;28;20457;-77
2022/01/12 13:04:39;;;;;;;5.33;4.63;;;;;;;3.30;43.23;95519.84;5075405;28;20555;-77
2022/01/12 13:07:17;;;;;;;10.00;5.20;;;;;;;3.62;42.78;95529.25;5078101;28;20404;-76
2022/01/12 13:09:43;;;;;;;8.20;5.20;;;;;;;3.38;43.46;95532.16;5076227;28;20425;-75
2022/01/12 13:12:09;;;;;;;5.73;3.60;;;;;;;3.82;42.54;95524.19;5068496;28;20417;-75
2022/01/12 13:14:43;;;;;;;6.80;3.67;;;;;;;4.08;41.17;95527.13;5073587;28;20487;-75
2022/01/12 13:17:08;;;;;;;6.37;4.33;;;;;;;3.52;41.72;95521.44;5072194;28;20213;-75
2022/01/12 13:22:34;;;;;;;8.07;4.40;;;;;;;3.70;41.48;95532.03;5079778;28;20205;-77
2022/01/12 13:25:02;;;;;;;4.55;3.67;;;;;;;3.36;42.02;95528.03;5075698;28;20558;-75
2022/01/12 13:27:28;;;;;;;6.00;4.60;;;;;;;3.07;42.56;95533.84;5056076;28;20608;-76
2022/01/12 13:29:54;;;;;;;7.10;4.47;;;;;;;3.53;41.80;95545.59;5060848;28;20439;-75
2022/01/12 13:32:20;;;;;;;4.40;3.80;;;;;;;3.63;41.49;95540.44;5073710;28;20409;-75
2022/01/12 13:35:03;;;;;;;6.93;4.17;;;;;;;3.86;41.17;95541.91;5068156;28;20187;-74
2022/01/12 13:37:31;;;;;;;4.27;3.90;;;;;;;3.88;41.53;95539.19;5076691;28;20832;-75
2022/01/12 13:40:07;;;;;;;9.13;4.83;;;;;;;4.07;41.85;95548.78;5080341;28;20539;-75